sensor_id;sensor_type;location;lat;lon;timestamp;pressure;altitude;pressure_sealevel;temperature;humidity
12973;BME280;6551;51.056;9.466;2023-09-19T00:00:59;96889.19;;;18.44;83.69
12973;BME280;6551;51.056;9.466;2023-09-19T00:03:29;96889.72;;;18.46;83.50
12973;BME280;6551;51.056;9.466;2023-09-19T00:05:59;96884.91;;;18.43;83.74
12973;BME280;6551;51.056;9.466;2023-09-19T00:08:29;96897.06;;;18.41;83.86
12973;BME280;6551;51.056;9.466;2023-09-19T00:10:59;96896.47;;;18.44;84.03
12973;BME280;6551;51.056;9.466;2023-09-19T00:13:52;96903.53;;;18.40;84.12
12973;BME280;6551;51.056;9.466;2023-09-19T00:16:20;96902.00;;;18.34;84.40
12973;BME280;6551;51.056;9.466;2023-09-19T00:18:47;96893.63;;;18.35;84.35
12973;BME280;6551;51.056;9.466;2023-09-19T00:21:19;96906.06;;;18.31;84.35
12973;BME280;6551;51.056;9.466;2023-09-19T00:24:04;96911.28;;;18.23;85.03
12973;BME280;6551;51.056;9.466;2023-09-19T00:26:36;96907.66;;;18.08;85.47
12973;BME280;6551;51.056;9.466;2023-09-19T00:29:05;96910.34;;;18.08;85.96
12973;BME280;6551;51.056;9.466;2023-09-19T00:31:35;96917.09;;;18.06;86.29
12973;BME280;6551;51.056;9.466;2023-09-19T00:34:07;96914.91;;;18.08;86.56
12973;BME280;6551;51.056;9.466;2023-09-19T00:36:38;96920.03;;;18.09;86.41
12973;BME280;6551;51.056;9.466;2023-09-19T00:39:13;96917.66;;;18.03;86.83
12973;BME280;6551;51.056;9.466;2023-09-19T00:41:41;96909.13;;;17.96;87.28
12973;BME280;6551;51.056;9.466;2023-09-19T00:44:10;96922.81;;;17.99;86.68
12973;BME280;6551;51.056;9.466;2023-09-19T00:46:38;96918.41;;;18.08;86.33
12973;BME280;6551;51.056;9.466;2023-09-19T00:49:08;96927.94;;;18.01;86.66
12973;BME280;6551;51.056;9.466;2023-09-19T00:51:37;96932.69;;;18.09;86.45
12973;BME280;6551;51.056;9.466;2023-09-19T00:54:06;96928.94;;;18.05;86.32
12973;BME280;6551;51.056;9.466;2023-09-19T00:56:33;96931.94;;;18.03;86.35
12973;BME280;6551;51.056;9.466;2023-09-19T00:59:02;96948.34;;;18.07;86.35
12973;BME280;6551;51.056;9.466;2023-09-19T01:01:36;96943.81;;;18.02;85.95
12973;BME280;6551;51.056;9.466;2023-09-19T01:04:08;96950.81;;;18.03;86.30
12973;BME280;6551;51.056;9.466;2023-09-19T01:06:36;96945.16;;;18.00;86.37
12973;BME280;6551;51.056;9.466;2023-09-19T01:09:13;96945.47;;;17.98;86.24
12973;BME280;6551;51.056;9.466;2023-09-19T01:11:43;96947.34;;;17.98;86.56
12973;BME280;6551;51.056;9.466;2023-09-19T01:14:49;96963.31;;;17.89;86.48
12973;BME280;6551;51.056;9.466;2023-09-19T01:17:57;96969.00;;;17.88;86.39
12973;BME280;6551;51.056;9.466;2023-09-19T01:29:51;96983.63;;;17.77;85.90
12973;BME280;6551;51.056;9.466;2023-09-19T01:32:22;96988.47;;;17.75;85.40
12973;BME280;6551;51.056;9.466;2023-09-19T01:34:57;96990.91;;;17.76;85.43
12973;BME280;6551;51.056;9.466;2023-09-19T01:37:32;96985.50;;;17.76;85.11
12973;BME280;6551;51.056;9.466;2023-09-19T01:40:14;96987.69;;;17.69;84.64
12973;BME280;6551;51.056;9.466;2023-09-19T01:46:50;96984.84;;;17.56;84.01
12973;BME280;6551;51.056;9.466;2023-09-19T01:49:27;96993.78;;;17.46;84.08
12973;BME280;6551;51.056;9.466;2023-09-19T01:52:30;96983.22;;;17.49;83.12
12973;BME280;6551;51.056;9.466;2023-09-19T01:55:09;96992.72;;;17.42;82.93
12973;BME280;6551;51.056;9.466;2023-09-19T01:58:08;96991.38;;;17.39;82.67
12973;BME280;6551;51.056;9.466;2023-09-19T02:00:41;96983.00;;;17.41;82.61
12973;BME280;6551;51.056;9.466;2023-09-19T02:03:15;96999.97;;;17.41;82.22
12973;BME280;6551;51.056;9.466;2023-09-19T02:05:49;97001.34;;;17.39;82.23
12973;BME280;6551;51.056;9.466;2023-09-19T02:08:21;97005.69;;;17.35;82.60
12973;BME280;6551;51.056;9.466;2023-09-19T02:10:54;97014.81;;;17.34;82.93
12973;BME280;6551;51.056;9.466;2023-09-19T02:13:22;97013.19;;;17.33;83.19
12973;BME280;6551;51.056;9.466;2023-09-19T02:15:53;97016.44;;;17.35;83.02
12973;BME280;6551;51.056;9.466;2023-09-19T02:18:22;97011.31;;;17.33;83.06
12973;BME280;6551;51.056;9.466;2023-09-19T02:20:53;97011.34;;;17.28;82.87
12973;BME280;6551;51.056;9.466;2023-09-19T02:23:23;97019.97;;;17.25;82.68
12973;BME280;6551;51.056;9.466;2023-09-19T02:25:58;97020.00;;;17.20;82.99
12973;BME280;6551;51.056;9.466;2023-09-19T02:28:27;97019.72;;;17.22;83.06
12973;BME280;6551;51.056;9.466;2023-09-19T02:31:01;97021.84;;;17.25;83.31
12973;BME280;6551;51.056;9.466;2023-09-19T02:33:30;97019.72;;;17.27;83.44
12973;BME280;6551;51.056;9.466;2023-09-19T02:36:02;97024.28;;;17.26;83.58
12973;BME280;6551;51.056;9.466;2023-09-19T02:38:32;97008.44;;;17.20;84.30
12973;BME280;6551;51.056;9.466;2023-09-19T02:40:59;97018.16;;;17.16;84.82
12973;BME280;6551;51.056;9.466;2023-09-19T02:43:27;97034.59;;;17.04;85.55
12973;BME280;6551;51.056;9.466;2023-09-19T02:45:57;97035.72;;;16.93;85.54
12973;BME280;6551;51.056;9.466;2023-09-19T02:48:27;97038.13;;;16.94;85.50
12973;BME280;6551;51.056;9.466;2023-09-19T02:50:56;97045.38;;;16.94;84.66
12973;BME280;6551;51.056;9.466;2023-09-19T02:53:25;97041.66;;;16.90;84.14
12973;BME280;6551;51.056;9.466;2023-09-19T02:55:53;97047.06;;;16.85;84.47
12973;BME280;6551;51.056;9.466;2023-09-19T02:58:22;97040.31;;;16.87;84.14
12973;BME280;6551;51.056;9.466;2023-09-19T03:00:50;97053.22;;;16.90;83.77
12973;BME280;6551;51.056;9.466;2023-09-19T03:03:19;97055.09;;;16.90;83.48
12973;BME280;6551;51.056;9.466;2023-09-19T03:05:45;97053.47;;;16.89;83.09
12973;BME280;6551;51.056;9.466;2023-09-19T03:08:21;97061.03;;;16.87;82.39
12973;BME280;6551;51.056;9.466;2023-09-19T03:10:51;97063.72;;;16.82;82.14
12973;BME280;6551;51.056;9.466;2023-09-19T03:13:21;97059.97;;;16.73;81.70
12973;BME280;6551;51.056;9.466;2023-09-19T03:15:48;97070.47;;;16.69;81.32
12973;BME280;6551;51.056;9.466;2023-09-19T03:18:19;97068.06;;;16.68;81.15
12973;BME280;6551;51.056;9.466;2023-09-19T03:20:53;97068.59;;;16.70;80.96
12973;BME280;6551;51.056;9.466;2023-09-19T03:23:37;97075.28;;;16.72;80.80
12973;BME280;6551;51.056;9.466;2023-09-19T03:26:06;97067.22;;;16.72;80.65
12973;BME280;6551;51.056;9.466;2023-09-19T03:28:33;97072.59;;;16.77;80.19
12973;BME280;6551;51.056;9.466;2023-09-19T03:31:06;97058.63;;;16.75;80.05
12973;BME280;6551;51.056;9.466;2023-09-19T03:33:35;97073.97;;;16.65;79.16
12973;BME280;6551;51.056;9.466;2023-09-19T03:36:03;97068.56;;;16.75;79.42
12973;BME280;6551;51.056;9.466;2023-09-19T03:38:33;97070.72;;;16.73;79.18
12973;BME280;6551;51.056;9.466;2023-09-19T03:41:02;97059.47;;;16.66;79.51
12973;BME280;6551;51.056;9.466;2023-09-19T03:43:35;97064.56;;;16.62;79.13
12973;BME280;6551;51.056;9.466;2023-09-19T03:46:07;97059.72;;;16.64;78.98
12973;BME280;6551;51.056;9.466;2023-09-19T03:48:34;97062.41;;;16.69;78.96
12973;BME280;6551;51.056;9.466;2023-09-19T03:51:01;97061.59;;;16.69;78.63
12973;BME280;6551;51.056;9.466;2023-09-19T03:53:32;97061.84;;;16.72;78.54
12973;BME280;6551;51.056;9.466;2023-09-19T03:56:00;97053.00;;;16.67;78.78
12973;BME280;6551;51.056;9.466;2023-09-19T03:58:31;97051.94;;;16.68;79.03
12973;BME280;6551;51.056;9.466;2023-09-19T04:01:01;97054.31;;;16.74;79.22
12973;BME280;6551;51.056;9.466;2023-09-19T04:03:33;97058.59;;;16.80;79.10
12973;BME280;6551;51.056;9.466;2023-09-19T04:06:24;97070.94;;;16.96;79.15
12973;BME280;6551;51.056;9.466;2023-09-19T04:08:52;97069.81;;;17.13;78.92
12973;BME280;6551;51.056;9.466;2023-09-19T04:11:19;97072.19;;;17.19;78.34
12973;BME280;6551;51.056;9.466;2023-09-19T04:13:47;97060.63;;;17.24;78.28
12973;BME280;6551;51.056;9.466;2023-09-19T04:16:17;97072.16;;;17.24;78.50
12973;BME280;6551;51.056;9.466;2023-09-19T04:18:46;97067.28;;;17.36;78.42
12973;BME280;6551;51.056;9.466;2023-09-19T04:21:14;97081.81;;;17.40;78.04
12973;BME280;6551;51.056;9.466;2023-09-19T04:23:40;97076.88;;;17.58;77.83
12973;BME280;6551;51.056;9.466;2023-09-19T04:26:08;97084.97;;;17.63;77.16
12973;BME280;6551;51.056;9.466;2023-09-19T04:28:36;97088.44;;;17.63;77.32
12973;BME280;6551;51.056;9.466;2023-09-19T04:31:06;97087.38;;;17.64;76.97
12973;BME280;6551;51.056;9.466;2023-09-19T04:33:37;97083.88;;;17.64;76.83
12973;BME280;6551;51.056;9.466;2023-09-19T04:36:06;97092.53;;;17.56;76.92
12973;BME280;6551;51.056;9.466;2023-09-19T04:38:33;97097.16;;;17.40;77.50
12973;BME280;6551;51.056;9.466;2023-09-19T04:40:59;97090.47;;;17.27;78.03
12973;BME280;6551;51.056;9.466;2023-09-19T04:43:26;97088.28;;;17.34;77.63
12973;BME280;6551;51.056;9.466;2023-09-19T04:45:55;97090.75;;;17.26;77.82
12973;BME280;6551;51.056;9.466;2023-09-19T04:48:24;97086.19;;;17.26;77.87
12973;BME280;6551;51.056;9.466;2023-09-19T04:50:51;97094.50;;;17.25;77.68
12973;BME280;6551;51.056;9.466;2023-09-19T04:53:18;97097.75;;;17.22;77.74
12973;BME280;6551;51.056;9.466;2023-09-19T04:55:55;97091.00;;;17.29;77.55
12973;BME280;6551;51.056;9.466;2023-09-19T04:58:25;97092.91;;;17.24;77.65
12973;BME280;6551;51.056;9.466;2023-09-19T05:00:52;97092.09;;;17.23;77.72
12973;BME280;6551;51.056;9.466;2023-09-19T05:03:20;97093.22;;;17.12;77.86
12973;BME280;6551;51.056;9.466;2023-09-19T05:05:48;97093.47;;;17.11;78.38
12973;BME280;6551;51.056;9.466;2023-09-19T05:08:17;97097.78;;;17.12;78.49
12973;BME280;6551;51.056;9.466;2023-09-19T05:10:45;97108.03;;;17.05;78.46
12973;BME280;6551;51.056;9.466;2023-09-19T05:13:12;97098.63;;;17.02;78.10
12973;BME280;6551;51.056;9.466;2023-09-19T05:15:40;97105.63;;;16.98;78.25
12973;BME280;6551;51.056;9.466;2023-09-19T05:18:07;97095.16;;;17.02;78.08
12973;BME280;6551;51.056;9.466;2023-09-19T05:20:37;97090.31;;;16.88;77.47
12973;BME280;6551;51.056;9.466;2023-09-19T05:23:07;97100.28;;;16.88;77.16
12973;BME280;6551;51.056;9.466;2023-09-19T05:25:42;97101.91;;;16.79;77.63
12973;BME280;6551;51.056;9.466;2023-09-19T05:28:19;97084.72;;;16.70;77.01
12973;BME280;6551;51.056;9.466;2023-09-19T05:30:48;97106.75;;;16.72;77.29
12973;BME280;6551;51.056;9.466;2023-09-19T05:33:17;97114.81;;;16.72;76.30
12973;BME280;6551;51.056;9.466;2023-09-19T05:35:56;97122.06;;;16.66;76.36
12973;BME280;6551;51.056;9.466;2023-09-19T05:38:23;97121.53;;;16.69;75.82
12973;BME280;6551;51.056;9.466;2023-09-19T05:40:53;97127.72;;;16.70;75.52
12973;BME280;6551;51.056;9.466;2023-09-19T05:43:21;97130.13;;;16.66;75.41
12973;BME280;6551;51.056;9.466;2023-09-19T05:45:48;97126.09;;;16.69;75.40
12973;BME280;6551;51.056;9.466;2023-09-19T05:48:19;97139.28;;;16.55;74.86
12973;BME280;6551;51.056;9.466;2023-09-19T05:50:48;97140.09;;;16.46;74.15
12973;BME280;6551;51.056;9.466;2023-09-19T05:53:16;97137.91;;;16.48;73.83
12973;BME280;6551;51.056;9.466;2023-09-19T05:55:45;97151.09;;;16.44;73.56
12973;BME280;6551;51.056;9.466;2023-09-19T05:58:14;97149.50;;;16.53;73.10
12973;BME280;6551;51.056;9.466;2023-09-19T06:00:54;97160.00;;;16.60;72.54
12973;BME280;6551;51.056;9.466;2023-09-19T06:03:24;97156.22;;;16.61;72.88
12973;BME280;6551;51.056;9.466;2023-09-19T06:05:52;97166.19;;;16.65;73.12
12973;BME280;6551;51.056;9.466;2023-09-19T06:08:25;97171.81;;;16.59;72.77
12973;BME280;6551;51.056;9.466;2023-09-19T06:10:57;97173.19;;;16.71;72.96
12973;BME280;6551;51.056;9.466;2023-09-19T06:13:30;97173.72;;;16.73;72.54
12973;BME280;6551;51.056;9.466;2023-09-19T06:15:59;97187.94;;;16.69;72.20
12973;BME280;6551;51.056;9.466;2023-09-19T06:18:32;97186.06;;;16.64;71.80
12973;BME280;6551;51.056;9.466;2023-09-19T06:21:00;97186.06;;;16.64;71.70
12973;BME280;6551;51.056;9.466;2023-09-19T06:23:28;97179.06;;;16.43;72.07
12973;BME280;6551;51.056;9.466;2023-09-19T06:25:57;97185.47;;;16.32;71.81
12973;BME280;6551;51.056;9.466;2023-09-19T06:28:26;97192.75;;;16.42;72.21
12973;BME280;6551;51.056;9.466;2023-09-19T06:30:56;97197.06;;;16.58;71.60
12973;BME280;6551;51.056;9.466;2023-09-19T06:33:25;97197.88;;;16.58;71.63
12973;BME280;6551;51.056;9.466;2023-09-19T06:35:52;97197.63;;;16.70;71.43
12973;BME280;6551;51.056;9.466;2023-09-19T06:38:26;97205.44;;;16.76;71.26
12973;BME280;6551;51.056;9.466;2023-09-19T06:40:55;97207.84;;;16.83;71.01
12973;BME280;6551;51.056;9.466;2023-09-19T06:43:43;97213.47;;;16.91;71.11
12973;BME280;6551;51.056;9.466;2023-09-19T06:46:10;97224.78;;;17.04;70.91
12973;BME280;6551;51.056;9.466;2023-09-19T06:48:43;97237.69;;;17.12;71.24
12973;BME280;6551;51.056;9.466;2023-09-19T06:51:10;97244.41;;;17.19;70.84
12973;BME280;6551;51.056;9.466;2023-09-19T06:53:44;97244.66;;;17.28;70.58
12973;BME280;6551;51.056;9.466;2023-09-19T06:56:11;97253.81;;;17.37;70.66
12973;BME280;6551;51.056;9.466;2023-09-19T06:58:39;97250.56;;;17.55;70.27
12973;BME280;6551;51.056;9.466;2023-09-19T07:01:06;97261.84;;;17.67;69.90
12973;BME280;6551;51.056;9.466;2023-09-19T07:03:34;97261.56;;;17.64;69.17
12973;BME280;6551;51.056;9.466;2023-09-19T07:06:06;97262.91;;;17.66;68.76
12973;BME280;6551;51.056;9.466;2023-09-19T07:08:35;97262.13;;;17.66;68.74
12973;BME280;6551;51.056;9.466;2023-09-19T07:11:02;97270.47;;;17.49;68.66
12973;BME280;6551;51.056;9.466;2023-09-19T07:13:35;97269.34;;;17.75;68.31
12973;BME280;6551;51.056;9.466;2023-09-19T07:16:03;97269.09;;;17.77;67.91
12973;BME280;6551;51.056;9.466;2023-09-19T07:18:43;97271.25;;;17.75;68.25
12973;BME280;6551;51.056;9.466;2023-09-19T07:21:15;97267.47;;;17.81;68.18
12973;BME280;6551;51.056;9.466;2023-09-19T07:23:43;97263.44;;;17.73;67.83
12973;BME280;6551;51.056;9.466;2023-09-19T07:26:13;97267.47;;;17.76;67.72
12973;BME280;6551;51.056;9.466;2023-09-19T07:28:43;97263.47;;;17.63;67.42
12973;BME280;6551;51.056;9.466;2023-09-19T07:31:14;97260.75;;;17.53;67.70
12973;BME280;6551;51.056;9.466;2023-09-19T07:33:44;97268.34;;;17.56;67.94
12973;BME280;6551;51.056;9.466;2023-09-19T07:36:11;97272.06;;;17.50;67.61
12973;BME280;6551;51.056;9.466;2023-09-19T07:38:51;97265.91;;;17.44;67.62
12973;BME280;6551;51.056;9.466;2023-09-19T07:41:21;97276.41;;;17.56;67.25
12973;BME280;6551;51.056;9.466;2023-09-19T07:43:51;97278.56;;;17.49;67.30
12973;BME280;6551;51.056;9.466;2023-09-19T07:46:19;97267.50;;;17.66;67.21
12973;BME280;6551;51.056;9.466;2023-09-19T07:48:49;97269.09;;;17.77;67.09
12973;BME280;6551;51.056;9.466;2023-09-19T07:51:16;97276.88;;;17.83;67.28
12973;BME280;6551;51.056;9.466;2023-09-19T07:53:45;97270.22;;;17.66;67.78
12973;BME280;6551;51.056;9.466;2023-09-19T07:56:14;97274.44;;;17.87;67.54
12973;BME280;6551;51.056;9.466;2023-09-19T07:58:42;97255.31;;;17.93;67.49
12973;BME280;6551;51.056;9.466;2023-09-19T08:01:11;97262.06;;;17.86;67.87
12973;BME280;6551;51.056;9.466;2023-09-19T08:03:43;97258.53;;;17.85;67.92
12973;BME280;6551;51.056;9.466;2023-09-19T08:06:12;97277.69;;;17.84;67.20
12973;BME280;6551;51.056;9.466;2023-09-19T08:08:43;97260.25;;;17.51;68.51
12973;BME280;6551;51.056;9.466;2023-09-19T08:11:13;97273.69;;;17.61;68.92
12973;BME280;6551;51.056;9.466;2023-09-19T08:13:49;97264.53;;;17.67;68.75
12973;BME280;6551;51.056;9.466;2023-09-19T08:16:16;97269.88;;;17.87;68.05
12973;BME280;6551;51.056;9.466;2023-09-19T08:18:51;97263.75;;;17.62;67.09
12973;BME280;6551;51.056;9.466;2023-09-19T08:21:22;97275.31;;;17.42;69.19
12973;BME280;6551;51.056;9.466;2023-09-19T08:23:50;97266.72;;;17.40;69.45
12973;BME280;6551;51.056;9.466;2023-09-19T08:26:18;97277.72;;;17.74;66.89
12973;BME280;6551;51.056;9.466;2023-09-19T08:28:45;97259.03;;;18.02;66.62
12973;BME280;6551;51.056;9.466;2023-09-19T08:31:14;97278.84;;;18.32;65.76
12973;BME280;6551;51.056;9.466;2023-09-19T08:33:41;97279.56;;;18.52;64.17
12973;BME280;6551;51.056;9.466;2023-09-19T08:36:10;97271.75;;;18.46;63.62
12973;BME280;6551;51.056;9.466;2023-09-19T08:38:38;97283.63;;;18.45;63.37
12973;BME280;6551;51.056;9.466;2023-09-19T08:41:08;97287.94;;;18.51;63.81
12973;BME280;6551;51.056;9.466;2023-09-19T08:43:38;97268.41;;;18.69;63.90
12973;BME280;6551;51.056;9.466;2023-09-19T08:46:20;97280.56;;;18.66;63.51
12973;BME280;6551;51.056;9.466;2023-09-19T08:49:04;97288.59;;;18.23;64.55
12973;BME280;6551;51.056;9.466;2023-09-19T08:52:27;97293.44;;;18.21;64.53
12973;BME280;6551;51.056;9.466;2023-09-19T08:55:01;97281.84;;;18.25;64.50
12973;BME280;6551;51.056;9.466;2023-09-19T08:57:39;97282.44;;;18.12;64.30
12973;BME280;6551;51.056;9.466;2023-09-19T09:00:12;97287.25;;;18.20;64.76
12973;BME280;6551;51.056;9.466;2023-09-19T09:02:44;97277.25;;;18.26;64.42
12973;BME280;6551;51.056;9.466;2023-09-19T09:05:12;97293.44;;;18.26;64.18
12973;BME280;6551;51.056;9.466;2023-09-19T09:07:43;97294.13;;;17.77;64.45
12973;BME280;6551;51.056;9.466;2023-09-19T09:10:12;97301.69;;;17.50;65.94
12973;BME280;6551;51.056;9.466;2023-09-19T09:12:46;97296.03;;;17.46;66.24
12973;BME280;6551;51.056;9.466;2023-09-19T09:15:14;97301.72;;;17.55;66.65
12973;BME280;6551;51.056;9.466;2023-09-19T09:17:47;97304.66;;;17.74;66.26
12973;BME280;6551;51.056;9.466;2023-09-19T09:20:33;97298.72;;;17.82;64.34
12973;BME280;6551;51.056;9.466;2023-09-19T09:23:02;97297.63;;;17.88;64.14
12973;BME280;6551;51.056;9.466;2023-09-19T09:25:53;97311.00;;;18.08;64.95
12973;BME280;6551;51.056;9.466;2023-09-19T09:28:46;97304.00;;;18.12;63.54
12973;BME280;6551;51.056;9.466;2023-09-19T09:31:25;97305.84;;;18.27;63.83
12973;BME280;6551;51.056;9.466;2023-09-19T09:33:56;97304.38;;;18.44;62.17
12973;BME280;6551;51.056;9.466;2023-09-19T09:36:40;97303.53;;;18.59;62.38
12973;BME280;6551;51.056;9.466;2023-09-19T09:39:08;97297.13;;;18.89;61.00
12973;BME280;6551;51.056;9.466;2023-09-19T09:41:51;97293.09;;;18.86;59.90
12973;BME280;6551;51.056;9.466;2023-09-19T09:44:18;97297.69;;;18.86;59.94
12973;BME280;6551;51.056;9.466;2023-09-19T09:46:51;97299.06;;;18.83;60.25
12973;BME280;6551;51.056;9.466;2023-09-19T09:49:51;97307.84;;;18.55;60.27
12973;BME280;6551;51.056;9.466;2023-09-19T09:52:45;97311.06;;;18.62;60.56
12973;BME280;6551;51.056;9.466;2023-09-19T09:55:23;97312.25;;;18.90;60.03
12973;BME280;6551;51.056;9.466;2023-09-19T09:58:18;97297.91;;;18.94;60.42
12973;BME280;6551;51.056;9.466;2023-09-19T10:01:01;97298.13;;;19.03;60.41
12973;BME280;6551;51.056;9.466;2023-09-19T10:03:45;97289.25;;;18.97;60.07
12973;BME280;6551;51.056;9.466;2023-09-19T10:06:17;97301.25;;;19.15;60.21
12973;BME280;6551;51.056;9.466;2023-09-19T10:09:09;97297.16;;;19.56;59.48
12973;BME280;6551;51.056;9.466;2023-09-19T10:11:45;97301.31;;;19.72;59.17
12973;BME280;6551;51.056;9.466;2023-09-19T10:14:43;97305.31;;;19.75;59.16
12973;BME280;6551;51.056;9.466;2023-09-19T10:17:15;97307.28;;;19.69;58.86
12973;BME280;6551;51.056;9.466;2023-09-19T10:20:22;97302.56;;;18.84;60.13
12973;BME280;6551;51.056;9.466;2023-09-19T10:23:09;97307.59;;;18.56;62.20
12973;BME280;6551;51.056;9.466;2023-09-19T10:25:42;97315.31;;;18.73;60.58
12973;BME280;6551;51.056;9.466;2023-09-19T10:28:12;97305.78;;;18.86;62.14
12973;BME280;6551;51.056;9.466;2023-09-19T10:30:50;97305.34;;;19.12;61.23
12973;BME280;6551;51.056;9.466;2023-09-19T10:33:24;97301.56;;;19.08;60.44
12973;BME280;6551;51.056;9.466;2023-09-19T10:35:58;97310.88;;;18.92;60.95
12973;BME280;6551;51.056;9.466;2023-09-19T10:38:28;97317.63;;;18.90;61.43
12973;BME280;6551;51.056;9.466;2023-09-19T10:40:57;97299.16;;;19.07;61.00
12973;BME280;6551;51.056;9.466;2023-09-19T10:43:41;97308.56;;;19.14;60.95
12973;BME280;6551;51.056;9.466;2023-09-19T10:46:11;97312.31;;;19.13;60.83
12973;BME280;6551;51.056;9.466;2023-09-19T10:48:40;97307.03;;;19.03;61.11
12973;BME280;6551;51.056;9.466;2023-09-19T10:51:22;97300.56;;;18.99;60.93
12973;BME280;6551;51.056;9.466;2023-09-19T10:54:13;97313.28;;;18.99;60.74
12973;BME280;6551;51.056;9.466;2023-09-19T10:56:55;97310.97;;;19.16;60.02
12973;BME280;6551;51.056;9.466;2023-09-19T10:59:24;97308.66;;;19.33;59.98
12973;BME280;6551;51.056;9.466;2023-09-19T11:02:17;97277.06;;;19.34;59.52
12973;BME280;6551;51.056;9.466;2023-09-19T11:04:45;97300.84;;;19.32;59.55
12973;BME280;6551;51.056;9.466;2023-09-19T11:07:27;97301.13;;;19.30;59.58
12973;BME280;6551;51.056;9.466;2023-09-19T11:09:58;97295.88;;;19.49;59.15
12973;BME280;6551;51.056;9.466;2023-09-19T11:18:53;97294.19;;;20.05;58.04
12973;BME280;6551;51.056;9.466;2023-09-19T11:21:39;97288.56;;;20.02;57.85
12973;BME280;6551;51.056;9.466;2023-09-19T11:26:51;97283.03;;;20.12;57.87
12973;BME280;6551;51.056;9.466;2023-09-19T11:29:30;97278.19;;;20.09;57.42
12973;BME280;6551;51.056;9.466;2023-09-19T11:31:58;97278.88;;;20.43;56.88
12973;BME280;6551;51.056;9.466;2023-09-19T11:34:49;97282.91;;;20.46;56.37
12973;BME280;6551;51.056;9.466;2023-09-19T11:40:14;97261.25;;;20.64;55.48
12973;BME280;6551;51.056;9.466;2023-09-19T11:42:51;97264.72;;;20.51;54.94
12973;BME280;6551;51.056;9.466;2023-09-19T11:48:28;97269.97;;;20.80;55.02
12973;BME280;6551;51.056;9.466;2023-09-19T11:50:58;97279.94;;;20.66;54.70
12973;BME280;6551;51.056;9.466;2023-09-19T11:53:31;97278.00;;;20.29;56.25
12973;BME280;6551;51.056;9.466;2023-09-19T11:56:05;97293.63;;;20.08;56.50
12973;BME280;6551;51.056;9.466;2023-09-19T11:58:35;97290.81;;;19.95;57.54
12973;BME280;6551;51.056;9.466;2023-09-19T12:01:03;97292.34;;;20.24;57.76
12973;BME280;6551;51.056;9.466;2023-09-19T12:03:45;97278.00;;;20.48;56.80
12973;BME280;6551;51.056;9.466;2023-09-19T12:06:16;97263.59;;;20.52;55.52
12973;BME280;6551;51.056;9.466;2023-09-19T12:08:44;97266.81;;;19.88;56.92
12973;BME280;6551;51.056;9.466;2023-09-19T12:11:17;97286.91;;;19.53;57.54
12973;BME280;6551;51.056;9.466;2023-09-19T12:13:49;97281.81;;;19.75;58.26
12973;BME280;6551;51.056;9.466;2023-09-19T12:16:19;97280.38;;;19.83;57.33
12973;BME280;6551;51.056;9.466;2023-09-19T12:18:52;97280.19;;;19.74;56.89
12973;BME280;6551;51.056;9.466;2023-09-19T12:21:30;97281.06;;;19.70;57.14
12973;BME280;6551;51.056;9.466;2023-09-19T12:24:14;97281.81;;;19.52;57.28
12973;BME280;6551;51.056;9.466;2023-09-19T12:26:46;97275.41;;;19.43;58.02
12973;BME280;6551;51.056;9.466;2023-09-19T12:29:45;97286.03;;;19.58;58.00
12973;BME280;6551;51.056;9.466;2023-09-19T12:32:37;97287.84;;;19.67;57.99
12973;BME280;6551;51.056;9.466;2023-09-19T12:35:10;97287.03;;;19.67;57.59
12973;BME280;6551;51.056;9.466;2023-09-19T12:37:52;97279.63;;;19.77;57.98
12973;BME280;6551;51.056;9.466;2023-09-19T12:40:24;97277.47;;;19.79;57.47
12973;BME280;6551;51.056;9.466;2023-09-19T12:42:58;97285.34;;;19.76;58.56
12973;BME280;6551;51.056;9.466;2023-09-19T12:45:25;97274.03;;;19.69;58.78
12973;BME280;6551;51.056;9.466;2023-09-19T12:48:26;97237.38;;;19.87;58.57
12973;BME280;6551;51.056;9.466;2023-09-19T12:51:14;97253.09;;;19.84;57.18
12973;BME280;6551;51.056;9.466;2023-09-19T12:54:02;97245.88;;;19.51;57.71
12973;BME280;6551;51.056;9.466;2023-09-19T12:56:52;97275.91;;;19.73;56.91
12973;BME280;6551;51.056;9.466;2023-09-19T12:59:32;97273.91;;;19.55;56.99
12973;BME280;6551;51.056;9.466;2023-09-19T13:02:08;97268.88;;;19.49;57.52
12973;BME280;6551;51.056;9.466;2023-09-19T13:04:52;97266.41;;;19.76;56.98
12973;BME280;6551;51.056;9.466;2023-09-19T13:07:45;97275.44;;;19.66;56.86
12973;BME280;6551;51.056;9.466;2023-09-19T13:10:15;97265.38;;;19.72;56.90
12973;BME280;6551;51.056;9.466;2023-09-19T13:12:44;97280.66;;;19.58;56.17
12973;BME280;6551;51.056;9.466;2023-09-19T13:15:16;97270.84;;;19.67;56.25
12973;BME280;6551;51.056;9.466;2023-09-19T13:17:55;97258.94;;;19.68;56.88
12973;BME280;6551;51.056;9.466;2023-09-19T13:20:27;97281.75;;;19.57;57.41
12973;BME280;6551;51.056;9.466;2023-09-19T13:23:01;97280.69;;;19.53;57.06
12973;BME280;6551;51.056;9.466;2023-09-19T13:25:38;97273.84;;;19.65;56.87
12973;BME280;6551;51.056;9.466;2023-09-19T13:28:07;97276.00;;;19.63;57.06
12973;BME280;6551;51.056;9.466;2023-09-19T13:30:37;97272.50;;;19.63;56.47
12973;BME280;6551;51.056;9.466;2023-09-19T13:33:14;97259.66;;;19.50;56.82
12973;BME280;6551;51.056;9.466;2023-09-19T13:35:56;97276.63;;;19.21;57.22
12973;BME280;6551;51.056;9.466;2023-09-19T13:38:27;97264.66;;;19.33;57.07
12973;BME280;6551;51.056;9.466;2023-09-19T13:40:55;97257.59;;;19.37;56.90
12973;BME280;6551;51.056;9.466;2023-09-19T13:43:24;97249.56;;;19.60;56.69
12973;BME280;6551;51.056;9.466;2023-09-19T13:45:52;97267.25;;;19.71;56.00
12973;BME280;6551;51.056;9.466;2023-09-19T13:48:20;97239.41;;;19.76;55.54
12973;BME280;6551;51.056;9.466;2023-09-19T13:50:50;97266.25;;;19.91;54.79
12973;BME280;6551;51.056;9.466;2023-09-19T13:53:19;97260.00;;;19.96;54.63
12973;BME280;6551;51.056;9.466;2023-09-19T13:55:58;97249.84;;;20.06;54.65
12973;BME280;6551;51.056;9.466;2023-09-19T13:58:25;97230.47;;;19.99;54.91
12973;BME280;6551;51.056;9.466;2023-09-19T14:00:56;97243.84;;;19.91;54.80
12973;BME280;6551;51.056;9.466;2023-09-19T14:03:26;97249.25;;;19.91;55.40
12973;BME280;6551;51.056;9.466;2023-09-19T14:06:17;97247.84;;;19.69;54.90
12973;BME280;6551;51.056;9.466;2023-09-19T14:09:03;97245.44;;;19.68;55.29
12973;BME280;6551;51.056;9.466;2023-09-19T14:11:31;97240.97;;;19.82;55.18